Bookmark and Share
Track history (hours):
 

Mazy

Last reported at 2013-Sep-14 15:06 UTC. Time now 2014-Apr-18 08:03 UTC.
Position N 37°48' E 023°46'.
Warning: this ship's position is months out of date.

Length 39 m; draft 2.3 m.

MMSI: 229043000.

NotesDate/timePositionNaut miles runAvg speedWind from/ knotsBaromVisibWave heightAir tempDewpointWater temp
2013-Sep-14 15:06N 37°48' E 023°46'1 1.5
2013-Sep-14 14:33N 37°48' E 023°46'6 6.1
2013-Sep-14 13:33N 37°47' E 023°53'0 0.0
2013-Sep-14 12:33N 37°47' E 023°53'0 0.0
2013-Sep-14 11:33N 37°47' E 023°53'1 1.1
2013-Sep-14 10:33N 37°47' E 023°52'5 4.8
2013-Sep-14 09:33N 37°48' E 023°46'0 0.0
2013-Sep-14 08:33N 37°48' E 023°46'0 0.0
2013-Sep-14 07:33N 37°48' E 023°46'0 0.0
2013-Sep-14 06:33N 37°48' E 023°46'0 0.0
2013-Sep-14 05:33N 37°48' E 023°46'0 0.0
2013-Sep-14 04:33N 37°48' E 023°46'0 0.0
2013-Sep-14 03:33N 37°48' E 023°46'0 0.0
2013-Sep-14 02:33N 37°48' E 023°46'0 0.0
2013-Sep-14 01:32N 37°48' E 023°46'0 0.0
2013-Sep-14 00:33N 37°48' E 023°46'0 0.0
2013-Sep-13 23:33N 37°48' E 023°46'0 0.0
2013-Sep-13 22:33N 37°48' E 023°46'0 0.0
2013-Sep-13 21:33N 37°48' E 023°46'0 0.0
2013-Sep-13 20:33N 37°48' E 023°46'0 0.0
2013-Sep-13 19:33N 37°48' E 023°46'0 0.0
2013-Sep-13 18:33N 37°48' E 023°46'0 0.0
2013-Sep-13 17:33N 37°48' E 023°46'0 0.0
2013-Sep-13 16:33N 37°48' E 023°46'0 0.0
2013-Sep-13 15:33N 37°48' E 023°46'0 0.2
2013-Sep-13 14:33N 37°48' E 023°47'0 0.2
2013-Sep-13 13:33N 37°48' E 023°47'0 0.0
2013-Sep-13 12:33N 37°48' E 023°47'0 0.0
2013-Sep-13 11:33N 37°48' E 023°47'0 0.0
2013-Sep-13 10:33N 37°48' E 023°47'0 0.0
2013-Sep-13 09:33N 37°48' E 023°47'0 0.0
2013-Sep-13 08:33N 37°48' E 023°47'0 0.0
2013-Sep-13 07:33N 37°48' E 023°47'0 0.0
2013-Sep-13 06:33N 37°48' E 023°47'0 0.0
2013-Sep-13 05:33N 37°48' E 023°47'0 0.0
2013-Sep-13 04:33N 37°48' E 023°47'0 0.0
2013-Sep-13 03:33N 37°48' E 023°47'0 0.0
2013-Sep-13 02:33N 37°48' E 023°47'0 0.0
2013-Sep-13 01:33N 37°48' E 023°47'0 0.0
2013-Sep-13 00:33N 37°48' E 023°47'0 0.0
2013-Sep-12 23:33N 37°48' E 023°47'0 0.0
2013-Sep-12 22:33N 37°48' E 023°47'0 0.0
2013-Sep-12 21:33N 37°48' E 023°47'0 0.0
2013-Sep-12 20:33N 37°48' E 023°47'0 0.0
2013-Sep-12 19:33N 37°48' E 023°47'0 0.0
2013-Sep-12 18:33N 37°48' E 023°47'9 8.3
2013-Sep-12 17:26N 37°41' E 023°54'1314.3
2013-Sep-12 16:33N 37°34' E 024°08'1212.1
2013-Sep-12 15:34N 37°30' E 024°22'1313.3
2013-Sep-12 14:33N 37°26' E 024°38'1313.2
2013-Sep-12 13:33N 37°21' E 024°53'1413.5
2013-Sep-12 12:32N 37°22' E 025°10'9 8.8
2013-Sep-12 11:33N 37°25' E 025°21'0 0.0
2013-Sep-12 10:32N 37°25' E 025°21'0 0.0
2013-Sep-12 09:33N 37°25' E 025°21'0 0.0
2013-Sep-12 08:33N 37°25' E 025°21'0 0.0
2013-Sep-12 07:33N 37°25' E 025°21'0 0.0
2013-Sep-12 06:31N 37°25' E 025°21'5 4.9
2013-Sep-12 05:33N 37°20' E 025°19'1211.6
2013-Sep-12 04:33N 37°09' E 025°15'2 1.6
2013-Sep-12 03:33N 37°08' E 025°14'0 0.0
2013-Sep-12 02:32N 37°08' E 025°14'0 0.0
2013-Sep-12 01:33N 37°08' E 025°14'0 0.0
2013-Sep-12 00:30N 37°08' E 025°14'0 0.0
2013-Sep-11 23:33N 37°08' E 025°14'0 0.0
2013-Sep-11 22:24N 37°08' E 025°14'0 0.0
2013-Sep-11 21:32N 37°08' E 025°14'0 0.0
2013-Sep-11 20:33N 37°08' E 025°14'0 0.0
2013-Sep-11 19:33N 37°08' E 025°14'0 0.0
2013-Sep-11 18:33N 37°08' E 025°14'0 0.0
2013-Sep-11 17:33N 37°08' E 025°14'0 0.0
2013-Sep-11 16:31N 37°08' E 025°14'0 0.0
2013-Sep-11 15:30N 37°08' E 025°14'4 4.4
2013-Sep-11 14:32N 37°04' E 025°17'1010.0
2013-Sep-11 13:33N 36°59' E 025°07'0 0.1
2013-Sep-11 12:33N 36°59' E 025°07'0 0.0
2013-Sep-11 11:32N 36°59' E 025°07'0 0.0
2013-Sep-11 10:33N 36°59' E 025°07'0 0.0
2013-Sep-11 09:33N 36°59' E 025°07'0 0.0
2013-Sep-11 08:33N 36°59' E 025°07'0 0.0
2013-Sep-11 07:33N 36°59' E 025°07'0 0.0
2013-Sep-11 06:32N 36°59' E 025°07'6 6.0
2013-Sep-11 05:33N 36°57' E 024°60'1111.3
2013-Sep-11 04:33N 37°01' E 024°47'5 4.1
2013-Sep-11 03:19N 36°59' E 024°40'0 0.0
2013-Sep-11 02:31N 36°59' E 024°40'0 0.0
2013-Sep-11 01:30N 36°59' E 024°40'0 0.0
2013-Sep-11 00:31N 36°59' E 024°40'0 0.0
2013-Sep-10 23:26N 36°59' E 024°40'0 0.0
2013-Sep-10 22:18N 36°59' E 024°40'0 0.0
2013-Sep-10 21:29N 36°59' E 024°40'0 0.0
2013-Sep-10 20:33N 36°59' E 024°40'0 0.0
2013-Sep-10 19:33N 36°59' E 024°40'0 0.0
2013-Sep-10 18:33N 36°59' E 024°40'0 0.0
2013-Sep-10 17:33N 36°59' E 024°40'0 0.0
2013-Sep-10 16:29N 36°59' E 024°40'0 0.0
2013-Sep-10 15:33N 36°59' E 024°40'8 7.9
2013-Sep-10 14:33N 36°52' E 024°37'3 2.7
2013-Sep-10 13:33N 36°49' E 024°36'0 0.0
2013-Sep-10 12:33N 36°49' E 024°36'0 0.0
2013-Sep-10 11:33N 36°49' E 024°36'0 0.0
2013-Sep-10 10:33N 36°49' E 024°36'0 0.0
2013-Sep-10 09:33N 36°49' E 024°36'4 3.8
2013-Sep-10 08:23N 36°45' E 024°37'1 0.0
2013-Sep-09 08:03N 36°45' E 024°38'3 0.1
2013-Sep-08 08:33N 36°48' E 024°36'9 8.6
2013-Sep-08 07:32N 36°54' E 024°43'1111.5
2013-Sep-08 06:33N 37°03' E 024°52'1212.2
2013-Sep-08 05:33N 37°13' E 025°01'1212.4
2013-Sep-08 04:33N 37°24' E 025°09'9 8.9
2013-Sep-08 03:33N 37°27' E 025°20'0 0.0
2013-Sep-08 02:33N 37°27' E 025°20'0 0.0
2013-Sep-08 01:33N 37°27' E 025°20'0 0.0
2013-Sep-08 00:33N 37°27' E 025°20'0 0.0
2013-Sep-07 23:33N 37°27' E 025°20'0 0.0
2013-Sep-07 22:33N 37°27' E 025°20'0 0.0
2013-Sep-07 21:31N 37°27' E 025°20'0 0.0
2013-Sep-07 20:29N 37°27' E 025°20'0 0.0
2013-Sep-07 19:33N 37°27' E 025°20'0 0.0
2013-Sep-07 18:31N 37°27' E 025°20'0 0.0
2013-Sep-07 17:24N 37°27' E 025°20'0 0.0
2013-Sep-07 16:32N 37°27' E 025°20'3 3.2
2013-Sep-07 15:32N 37°30' E 025°20'2 0.2
2013-Sep-07 08:26N 37°29' E 025°22'6 7.2
2013-Sep-07 07:33N 37°24' E 025°17'2 2.4
2013-Sep-07 06:33N 37°23' E 025°14'0 0.0
2013-Sep-07 05:33N 37°23' E 025°14'0 0.0
2013-Sep-07 04:33N 37°23' E 025°14'0 0.0
2013-Sep-07 03:33N 37°23' E 025°14'0 0.0
2013-Sep-07 02:33N 37°23' E 025°14'0 0.0
2013-Sep-07 01:33N 37°23' E 025°14'0 0.0
2013-Sep-07 00:33N 37°23' E 025°14'0 0.0
2013-Sep-06 23:33N 37°23' E 025°14'0 0.0
2013-Sep-06 22:33N 37°23' E 025°14'0 0.0
2013-Sep-06 21:33N 37°23' E 025°14'0 0.0
2013-Sep-06 20:33N 37°23' E 025°14'0 0.0
2013-Sep-06 19:28N 37°23' E 025°14'0 0.0
2013-Sep-06 18:33N 37°23' E 025°14'0 0.0
2013-Sep-06 17:33N 37°23' E 025°14'0 0.0
2013-Sep-06 16:33N 37°23' E 025°14'0 0.0
2013-Sep-06 15:33N 37°23' E 025°14'0 0.0
2013-Sep-06 14:33N 37°23' E 025°14'0 0.0
2013-Sep-06 13:33N 37°23' E 025°14'0 0.0
2013-Sep-06 12:33N 37°23' E 025°14'0 0.0
2013-Sep-06 11:33N 37°23' E 025°14'0 0.0
2013-Sep-06 10:33N 37°23' E 025°14'0 0.0
2013-Sep-06 09:33N 37°23' E 025°14'0 0.0
2013-Sep-06 08:33N 37°23' E 025°14'0 0.0
2013-Sep-06 07:33N 37°23' E 025°14'0 0.0
2013-Sep-06 06:33N 37°23' E 025°14'0 0.0
2013-Sep-06 05:34N 37°23' E 025°14'0 0.0
2013-Sep-06 04:33N 37°23' E 025°14'0 0.0
2013-Sep-06 03:33N 37°23' E 025°14'0 0.0
2013-Sep-06 02:33N 37°23' E 025°14'0 0.0
2013-Sep-06 01:33N 37°23' E 025°14'0 0.0
2013-Sep-06 00:33N 37°23' E 025°14'0 0.0
2013-Sep-05 23:33N 37°23' E 025°14'0 0.0
2013-Sep-05 22:33N 37°23' E 025°14'0 0.0
2013-Sep-05 21:33N 37°23' E 025°14'0 0.0
2013-Sep-05 20:33N 37°23' E 025°14'0 0.0
2013-Sep-05 19:33N 37°23' E 025°14'0 0.0
2013-Sep-05 18:33N 37°23' E 025°14'0 0.0
2013-Sep-05 17:33N 37°23' E 025°14'0 0.0
2013-Sep-05 16:33N 37°23' E 025°14'1010.0
2013-Sep-05 15:33N 37°27' E 025°03'11 8.0
2013-Sep-05 14:14N 37°30' E 024°50'2111.6
2013-Sep-05 12:28N 37°28' E 024°24'  

Dump ship's entire track history

sailing weather and tide predictions

Mazy — 9HB2808 — position and weather